Time;durP1;ratioP1;P1;durP2;ratioP2;P2;SDS_P1;SDS_P2;PMS_P1;PMS_P2;Temp;Humidity;BMP_temperature;BMP_pressure;BME280_temperature;BME280_humidity;BME280_pressure;Samples;Min_cycle;Max_cycle;Signal;HPM_P1;HPM_P2
2023/05/17 00:01:52;;;;;;;5.40;0.98;;;15.60;99.90;;;;;;5026494;28;20191;-72
2023/05/17 00:04:23;;;;;;;6.32;1.33;;;15.50;99.90;;;;;;5034436;28;20195;-74
2023/05/17 00:06:54;;;;;;;8.20;2.13;;;15.50;99.90;;;;;;5031764;28;20252;-73
2023/05/17 00:09:25;;;;;;;3.97;1.15;;;15.50;99.90;;;;;;5026359;28;20191;-72
2023/05/17 00:11:56;;;;;;;3.60;1.00;;;15.50;99.90;;;;;;5017566;28;20222;-72
2023/05/17 00:14:30;;;;;;;4.95;0.90;;;15.50;99.90;;;;;;5022953;28;20248;-74
2023/05/17 00:17:01;;;;;;;4.88;1.00;;;15.50;99.90;;;;;;5024704;28;20542;-72
2023/05/17 00:19:32;;;;;;;4.68;1.00;;;15.60;99.90;;;;;;5024942;28;20277;-72
2023/05/17 00:22:03;;;;;;;5.15;0.88;;;15.60;99.90;;;;;;5029532;28;20206;-72
2023/05/17 00:24:34;;;;;;;5.55;1.02;;;15.60;99.90;;;;;;5033469;28;20197;-74
2023/05/17 00:27:06;;;;;;;8.98;1.10;;;15.70;99.90;;;;;;5027813;28;20198;-75
2023/05/17 00:29:39;;;;;;;9.27;1.13;;;15.80;99.90;;;;;;5025256;28;20643;-76
2023/05/17 00:32:10;;;;;;;5.03;1.00;;;15.90;99.90;;;;;;5028529;28;20206;-75
2023/05/17 00:34:41;;;;;;;7.07;1.10;;;15.90;99.90;;;;;;5034414;28;20198;-72
2023/05/17 00:37:12;;;;;;;4.28;0.95;;;16.00;99.90;;;;;;5030152;28;20194;-76
2023/05/17 00:39:43;;;;;;;6.05;1.00;;;16.10;99.90;;;;;;5027274;28;20209;-75
2023/05/17 00:42:14;;;;;;;4.03;0.90;;;16.20;99.90;;;;;;5017032;28;20202;-75
2023/05/17 00:44:47;;;;;;;5.97;1.15;;;16.20;99.90;;;;;;5013381;28;20199;-75
2023/05/17 00:47:18;;;;;;;8.02;1.10;;;16.10;99.90;;;;;;5017120;28;20206;-75
2023/05/17 00:49:50;;;;;;;4.65;0.80;;;16.00;99.90;;;;;;5019173;28;20198;-75
2023/05/17 00:52:21;;;;;;;6.85;0.90;;;16.00;99.90;;;;;;5026076;28;20713;-74
2023/05/17 00:54:56;;;;;;;7.95;1.20;;;16.00;99.90;;;;;;5017448;28;20202;-74
2023/05/17 00:57:30;;;;;;;4.88;1.13;;;16.00;99.90;;;;;;4900088;28;3277969;-74
2023/05/17 01:00:04;;;;;;;5.53;1.00;;;16.10;99.90;;;;;;5006309;28;20230;-75
2023/05/17 01:02:35;;;;;;;6.10;0.90;;;16.10;99.90;;;;;;5015258;28;20651;-76
2023/05/17 01:05:07;;;;;;;4.03;0.90;;;16.10;99.90;;;;;;5015151;28;20193;-75
2023/05/17 01:07:38;;;;;;;3.08;0.80;;;16.20;99.90;;;;;;5015111;28;20275;-75
2023/05/17 01:10:12;;;;;;;5.50;1.00;;;16.20;99.90;;;;;;5014878;28;20191;-75
2023/05/17 01:12:57;;;;;;;8.57;0.95;;;16.30;99.90;;;;;;5022608;28;20211;-73
2023/05/17 01:15:33;;;;;;;6.63;0.80;;;16.30;99.90;;;;;;5015005;28;20310;-74
2023/05/17 01:18:14;;;;;;;5.55;0.82;;;16.30;99.90;;;;;;5014791;28;20206;-76
2023/05/17 01:20:46;;;;;;;5.35;0.80;;;16.40;99.90;;;;;;5014795;28;20189;-75
2023/05/17 01:23:33;;;;;;;4.22;0.70;;;16.50;99.90;;;;;;5014722;28;20198;-73
2023/05/17 01:26:12;;;;;;;3.10;0.70;;;16.60;99.90;;;;;;5014520;28;20209;-77
2023/05/17 01:28:48;;;;;;;6.03;0.95;;;16.60;99.90;;;;;;5014569;28;20198;-74
2023/05/17 01:31:20;;;;;;;4.65;1.10;;;16.60;99.90;;;;;;5014548;28;20201;-73
2023/05/17 01:33:51;;;;;;;3.60;0.80;;;16.70;99.90;;;;;;5014453;28;20227;-74
2023/05/17 01:36:22;;;;;;;3.90;0.70;;;16.80;99.90;;;;;;5014407;28;20191;-74
2023/05/17 01:38:53;;;;;;;4.05;0.88;;;16.90;99.90;;;;;;5014303;28;20195;-73
2023/05/17 01:41:31;;;;;;;3.67;0.77;;;17.00;99.90;;;;;;5014726;28;20191;-77
2023/05/17 01:44:14;;;;;;;3.45;0.70;;;17.10;99.90;;;;;;5006743;28;20290;-74
2023/05/17 01:46:46;;;;;;;4.22;1.00;;;17.10;99.90;;;;;;5014246;28;20187;-75
2023/05/17 01:49:23;;;;;;;3.50;0.80;;;17.20;99.90;;;;;;5013967;28;20193;-75
2023/05/17 01:51:59;;;;;;;7.03;0.95;;;17.30;99.90;;;;;;5014397;28;20186;-77
2023/05/17 01:54:38;;;;;;;7.00;1.00;;;17.30;99.90;;;;;;5014029;28;20608;-76
2023/05/17 01:57:11;;;;;;;4.10;0.60;;;17.40;99.90;;;;;;5013946;28;20685;-74
2023/05/17 01:59:46;;;;;;;4.07;0.93;;;17.40;99.90;;;;;;5014378;28;20674;-76
2023/05/17 02:02:17;;;;;;;3.53;1.10;;;17.50;99.90;;;;;;5014076;28;20194;-75
2023/05/17 02:04:50;;;;;;;4.00;0.80;;;17.50;99.90;;;;;;5014121;28;20194;-74
2023/05/17 02:07:21;;;;;;;4.45;1.00;;;17.60;99.90;;;;;;5013976;28;20704;-74
2023/05/17 02:09:52;;;;;;;7.32;1.30;;;17.60;99.90;;;;;;5013778;28;20202;-75
2023/05/17 02:12:24;;;;;;;5.95;1.10;;;17.60;99.90;;;;;;5013873;28;20701;-76
2023/05/17 02:14:57;;;;;;;5.85;1.00;;;17.70;99.90;;;;;;5013936;28;20527;-73
2023/05/17 02:17:28;;;;;;;4.47;0.80;;;17.70;99.90;;;;;;5013920;28;20198;-72
2023/05/17 02:19:59;;;;;;;5.95;1.02;;;17.70;99.90;;;;;;5013825;28;20194;-72
2023/05/17 02:22:30;;;;;;;4.72;1.05;;;17.70;99.90;;;;;;5013574;28;20218;-71
2023/05/17 02:25:01;;;;;;;4.60;0.80;;;17.70;99.90;;;;;;5013987;28;20199;-72
2023/05/17 02:27:32;;;;;;;3.60;0.90;;;17.70;99.90;;;;;;5013887;28;20199;-74
2023/05/17 02:30:08;;;;;;;4.65;0.90;;;17.80;99.90;;;;;;5005951;28;20233;-75
2023/05/17 02:32:39;;;;;;;7.22;1.02;;;17.90;99.90;;;;;;5013617;28;20693;-73
2023/05/17 02:35:10;;;;;;;3.83;0.85;;;17.90;99.90;;;;;;5013633;28;20202;-75
2023/05/17 02:37:42;;;;;;;4.32;0.90;;;17.80;99.90;;;;;;5013613;28;20191;-75
2023/05/17 02:40:14;;;;;;;7.47;1.30;;;17.70;99.90;;;;;;5013554;28;20194;-74
2023/05/17 02:42:45;;;;;;;7.25;1.13;;;17.70;99.90;;;;;;5013492;28;20539;-73
2023/05/17 02:45:18;;;;;;;6.22;1.15;;;17.70;99.90;;;;;;5013557;28;20191;-74
2023/05/17 02:47:49;;;;;;;6.55;1.20;;;17.70;99.90;;;;;;5013473;28;20187;-76
2023/05/17 02:50:20;;;;;;;3.58;0.75;;;17.60;99.90;;;;;;5013810;28;20205;-75
2023/05/17 02:52:51;;;;;;;4.63;0.95;;;17.60;99.90;;;;;;5013227;28;20217;-74
2023/05/17 02:55:22;;;;;;;3.20;0.90;;;17.60;99.90;;;;;;5013449;28;20665;-74
2023/05/17 02:57:53;;;;;;;5.03;1.10;;;17.50;99.90;;;;;;5013470;28;20234;-74
2023/05/17 03:00:26;;;;;;;4.38;0.80;;;17.40;99.90;;;;;;5014733;28;20702;-74
2023/05/17 03:02:57;;;;;;;6.30;0.77;;;17.40;99.90;;;;;;5017633;28;20206;-77
2023/05/17 03:05:29;;;;;;;3.70;0.90;;;17.40;99.90;;;;;;5017877;28;20191;-75
2023/05/17 03:08:00;;;;;;;3.03;0.70;;;17.40;99.90;;;;;;5017027;28;20583;-74
2023/05/17 03:10:31;;;;;;;8.38;1.08;;;17.60;99.90;;;;;;5017717;28;20195;-75
2023/05/17 03:13:02;;;;;;;4.32;0.70;;;17.60;99.90;;;;;;5016842;28;20242;-74
2023/05/17 03:15:35;;;;;;;4.32;0.70;;;17.60;99.90;;;;;;5024731;28;20186;-75
2023/05/17 03:18:07;;;;;;;5.15;0.93;;;17.60;99.90;;;;;;5018174;28;20542;-74
2023/05/17 03:20:38;;;;;;;6.00;0.80;;;17.60;99.90;;;;;;5016919;28;20658;-75
2023/05/17 03:23:09;;;;;;;7.30;1.30;;;17.60;99.90;;;;;;5016994;28;20195;-74
2023/05/17 03:25:40;;;;;;;4.28;0.73;;;17.60;99.90;;;;;;5016869;28;20198;-76
2023/05/17 03:28:11;;;;;;;4.32;0.82;;;17.50;99.90;;;;;;5016863;28;20533;-72
2023/05/17 03:30:44;;;;;;;4.03;0.77;;;17.20;99.90;;;;;;5017245;28;20191;-76
2023/05/17 03:33:15;;;;;;;3.22;0.50;;;17.00;99.90;;;;;;5016714;28;20229;-72
2023/05/17 03:35:46;;;;;;;2.78;0.70;;;16.90;99.90;;;;;;5016527;28;20187;-72
2023/05/17 03:38:17;;;;;;;3.85;0.65;;;16.90;99.90;;;;;;5016745;28;20187;-72
2023/05/17 03:40:49;;;;;;;4.65;1.10;;;17.00;99.90;;;;;;5016978;28;20249;-72
2023/05/17 03:43:20;;;;;;;3.65;0.90;;;17.10;99.90;;;;;;5016655;28;20669;-72
2023/05/17 03:45:53;;;;;;;7.07;1.30;;;17.20;99.90;;;;;;5016992;28;20201;-72
2023/05/17 03:48:24;;;;;;;7.00;0.85;;;17.30;99.90;;;;;;5016661;28;20563;-74
2023/05/17 03:50:55;;;;;;;3.58;0.77;;;17.30;99.90;;;;;;5016283;28;20187;-75
2023/05/17 03:53:26;;;;;;;3.78;0.88;;;17.30;99.90;;;;;;5016372;28;20218;-73
2023/05/17 03:55:57;;;;;;;4.45;0.88;;;17.20;99.90;;;;;;5016396;28;20194;-73
2023/05/17 03:58:28;;;;;;;3.47;0.80;;;17.30;99.90;;;;;;5016501;28;20238;-74
2023/05/17 04:01:01;;;;;;;4.40;0.90;;;17.30;99.90;;;;;;5016187;28;20223;-73
2023/05/17 04:03:32;;;;;;;5.95;0.80;;;17.30;99.90;;;;;;5016501;28;20217;-74
2023/05/17 04:06:08;;;;;;;4.22;0.80;;;17.40;99.90;;;;;;5016225;28;20187;-73
2023/05/17 04:08:39;;;;;;;5.00;0.90;;;17.30;99.90;;;;;;5016398;28;20653;-73
2023/05/17 04:11:13;;;;;;;7.95;1.20;;;17.20;99.90;;;;;;5015717;28;20206;-75
2023/05/17 04:13:45;;;;;;;4.80;0.70;;;17.20;99.90;;;;;;5015922;28;20349;-76
2023/05/17 04:16:18;;;;;;;7.03;0.80;;;17.10;99.90;;;;;;5015963;28;20191;-73
2023/05/17 04:18:51;;;;;;;5.28;0.77;;;17.00;99.90;;;;;;5015767;28;20662;-73
2023/05/17 04:21:22;;;;;;;4.38;1.20;;;16.90;99.90;;;;;;5015985;28;20190;-73
2023/05/17 04:23:53;;;;;;;3.95;0.80;;;16.90;99.90;;;;;;5018431;28;20201;-75
2023/05/17 04:26:25;;;;;;;4.32;0.70;;;17.00;99.90;;;;;;5020840;28;20201;-72
2023/05/17 04:28:56;;;;;;;4.50;1.00;;;16.90;99.90;;;;;;5018369;28;20210;-74
2023/05/17 04:31:29;;;;;;;6.18;0.90;;;16.90;99.90;;;;;;5018649;28;20194;-74
2023/05/17 04:34:01;;;;;;;3.60;0.90;;;16.90;99.90;;;;;;5020107;28;20223;-74
2023/05/17 04:36:32;;;;;;;5.35;0.90;;;16.90;99.90;;;;;;5016770;28;20206;-75
2023/05/17 04:39:04;;;;;;;5.03;0.90;;;16.90;99.90;;;;;;5008814;28;20575;-74
2023/05/17 04:41:35;;;;;;;4.35;1.02;;;16.90;99.90;;;;;;5026839;28;20284;-74
2023/05/17 04:44:08;;;;;;;4.25;0.80;;;17.00;99.90;;;;;;5027874;28;20191;-75
2023/05/17 04:46:41;;;;;;;5.03;0.60;;;17.10;99.90;;;;;;5035194;28;20190;-74
2023/05/17 04:49:12;;;;;;;4.10;1.00;;;17.10;99.90;;;;;;5028878;28;20694;-74
2023/05/17 04:51:43;;;;;;;3.63;0.70;;;17.10;99.90;;;;;;5030946;28;20201;-74
2023/05/17 04:54:14;;;;;;;6.18;0.85;;;17.10;99.90;;;;;;5029677;28;20220;-74
2023/05/17 04:56:45;;;;;;;3.67;0.68;;;17.00;99.90;;;;;;5027205;28;20199;-73
2023/05/17 04:59:16;;;;;;;2.33;0.60;;;17.00;99.90;;;;;;5025848;28;20223;-76
2023/05/17 05:01:49;;;;;;;3.47;0.70;;;17.00;99.90;;;;;;5015081;28;20195;-74
2023/05/17 05:04:20;;;;;;;3.30;0.50;;;17.00;99.90;;;;;;5015118;28;20195;-73
2023/05/17 05:06:51;;;;;;;3.42;0.50;;;16.90;99.90;;;;;;5016642;28;20199;-74
2023/05/17 05:09:22;;;;;;;2.63;0.60;;;16.90;99.90;;;;;;5021592;28;20214;-74
2023/05/17 05:11:53;;;;;;;4.43;0.47;;;16.80;99.90;;;;;;5028245;28;20217;-75
2023/05/17 05:14:24;;;;;;;4.32;0.85;;;16.70;99.90;;;;;;5020083;28;20215;-76
2023/05/17 05:16:57;;;;;;;4.68;0.88;;;16.60;99.90;;;;;;5017158;28;20209;-74
2023/05/17 05:19:29;;;;;;;2.58;0.52;;;16.50;99.90;;;;;;5017264;28;20670;-73
2023/05/17 05:22:00;;;;;;;3.75;1.00;;;16.60;99.90;;;;;;5018909;28;20193;-75
2023/05/17 05:24:31;;;;;;;5.38;0.80;;;16.70;99.90;;;;;;5017689;28;20199;-75
2023/05/17 05:27:02;;;;;;;3.97;0.57;;;16.70;99.90;;;;;;5015646;28;20688;-75
2023/05/17 05:29:33;;;;;;;3.67;0.70;;;16.60;99.90;;;;;;5017658;28;20662;-73
2023/05/17 05:32:06;;;;;;;5.82;0.85;;;16.50;99.90;;;;;;5017431;28;20681;-73
2023/05/17 05:34:37;;;;;;;5.28;0.88;;;16.40;99.90;;;;;;5024165;28;20234;-74
2023/05/17 05:37:09;;;;;;;5.72;0.93;;;16.50;99.90;;;;;;5013065;28;20198;-73
2023/05/17 05:39:40;;;;;;;3.40;0.82;;;16.60;99.90;;;;;;5014345;28;20710;-74
2023/05/17 05:42:11;;;;;;;4.53;1.00;;;16.70;99.90;;;;;;5015929;28;20202;-73
2023/05/17 05:44:42;;;;;;;8.15;1.02;;;16.60;99.90;;;;;;5022985;28;20654;-75
2023/05/17 05:47:15;;;;;;;3.33;0.80;;;16.60;99.90;;;;;;5029856;28;20206;-73
2023/05/17 05:49:46;;;;;;;4.47;1.00;;;16.50;99.90;;;;;;5014453;28;20205;-73
2023/05/17 05:52:18;;;;;;;4.38;0.70;;;16.40;99.90;;;;;;5025695;28;20570;-74
2023/05/17 05:54:49;;;;;;;3.60;0.70;;;16.30;99.90;;;;;;5030389;28;23708;-74
2023/05/17 05:57:20;;;;;;;7.85;1.13;;;16.30;99.90;;;;;;5017510;28;20237;-73
2023/05/17 05:59:51;;;;;;;5.10;0.95;;;16.30;99.90;;;;;;5013375;28;20254;-73
2023/05/17 06:02:25;;;;;;;8.73;0.77;;;16.30;99.90;;;;;;5022259;28;20548;-73
2023/05/17 06:04:56;;;;;;;3.78;0.80;;;16.20;99.90;;;;;;5024224;28;20612;-74
2023/05/17 06:07:27;;;;;;;1.80;0.50;;;16.20;99.90;;;;;;5012773;28;20234;-73
2023/05/17 06:09:58;;;;;;;2.92;0.70;;;16.20;99.90;;;;;;5013895;28;20191;-73
2023/05/17 06:12:29;;;;;;;2.60;1.05;;;16.30;99.90;;;;;;5014473;28;20197;-74
2023/05/17 06:15:00;;;;;;;3.83;0.57;;;16.30;99.90;;;;;;5013049;28;20226;-73
2023/05/17 06:17:33;;;;;;;4.82;0.65;;;16.30;99.90;;;;;;5033470;28;20735;-74
2023/05/17 06:20:05;;;;;;;4.90;0.70;;;16.20;99.90;;;;;;5024908;28;20197;-74
2023/05/17 06:22:36;;;;;;;3.65;0.85;;;16.20;99.90;;;;;;5018233;28;20198;-74
2023/05/17 06:25:07;;;;;;;4.82;0.80;;;16.10;99.90;;;;;;5031814;28;20198;-74
2023/05/17 06:27:38;;;;;;;4.38;0.70;;;16.10;99.90;;;;;;5026261;28;20194;-74
2023/05/17 06:30:10;;;;;;;4.88;0.60;;;16.00;99.90;;;;;;5013831;28;20203;-74
2023/05/17 06:32:43;;;;;;;2.55;0.50;;;15.90;99.90;;;;;;5019508;28;20190;-73
2023/05/17 06:35:15;;;;;;;4.20;0.57;;;15.70;99.90;;;;;;5022603;28;20218;-74
2023/05/17 06:37:46;;;;;;;2.65;0.55;;;15.60;99.90;;;;;;5015366;28;20198;-74
2023/05/17 06:40:17;;;;;;;2.88;0.50;;;15.50;99.90;;;;;;5013989;28;20206;-73
2023/05/17 06:42:48;;;;;;;2.25;0.50;;;15.30;99.90;;;;;;5013837;28;20201;-74
2023/05/17 06:45:19;;;;;;;5.07;0.70;;;15.30;99.90;;;;;;5022199;28;20207;-74
2023/05/17 06:47:52;;;;;;;3.85;0.82;;;15.20;99.90;;;;;;5019495;28;20206;-74
2023/05/17 06:50:25;;;;;;;5.32;0.98;;;15.10;99.90;;;;;;5015587;28;20201;-75
2023/05/17 06:52:56;;;;;;;3.15;0.63;;;15.10;99.90;;;;;;5011828;28;20202;-74
2023/05/17 06:55:27;;;;;;;4.78;0.80;;;15.00;99.90;;;;;;5013252;28;20233;-75
2023/05/17 06:57:59;;;;;;;5.72;0.80;;;15.00;99.90;;;;;;5021140;28;20717;-72
2023/05/17 07:00:30;;;;;;;6.95;0.90;;;15.00;99.90;;;;;;5023701;28;20248;-72
2023/05/17 07:03:03;;;;;;;5.38;0.80;;;14.90;99.90;;;;;;5018224;28;20559;-72
2023/05/17 07:05:34;;;;;;;6.03;1.02;;;14.90;99.90;;;;;;5017055;28;20201;-73
2023/05/17 07:08:06;;;;;;;3.53;0.75;;;14.90;99.90;;;;;;5012154;28;20191;-72
2023/05/17 07:10:37;;;;;;;6.07;0.98;;;14.90;99.90;;;;;;5020705;28;20557;-72
2023/05/17 07:13:08;;;;;;;4.00;0.82;;;14.90;99.90;;;;;;5024426;28;20202;-74
2023/05/17 07:15:39;;;;;;;6.50;1.02;;;14.90;99.90;;;;;;5030499;28;20218;-73
2023/05/17 07:18:12;;;;;;;3.78;0.70;;;14.90;99.90;;;;;;5030096;28;20309;-75
2023/05/17 07:20:44;;;;;;;4.40;0.88;;;14.80;99.90;;;;;;5025097;28;20202;-73
2023/05/17 07:23:15;;;;;;;4.55;0.70;;;14.80;99.90;;;;;;5022936;28;20209;-74
2023/05/17 07:25:46;;;;;;;5.05;0.77;;;14.80;99.90;;;;;;5013394;28;20209;-74
2023/05/17 07:28:17;;;;;;;5.38;0.73;;;14.80;99.90;;;;;;5022787;28;20205;-73
2023/05/17 07:30:48;;;;;;;4.32;0.70;;;14.80;99.90;;;;;;5020956;28;20199;-73
2023/05/17 07:33:21;;;;;;;2.50;0.60;;;14.80;99.90;;;;;;5031208;28;20198;-71
2023/05/17 07:35:52;;;;;;;4.13;0.70;;;14.70;99.90;;;;;;5023231;28;20690;-72
2023/05/17 07:38:23;;;;;;;3.97;1.02;;;14.70;99.90;;;;;;5012926;28;20199;-73
2023/05/17 07:40:54;;;;;;;6.78;0.90;;;14.70;99.90;;;;;;5024899;28;20206;-72
2023/05/17 07:43:25;;;;;;;5.65;0.85;;;14.70;99.90;;;;;;5032481;28;20190;-72
2023/05/17 07:45:56;;;;;;;5.32;0.85;;;14.70;99.90;;;;;;5030458;28;20202;-72
2023/05/17 07:48:29;;;;;;;5.13;0.85;;;14.60;99.90;;;;;;5028159;28;20543;-72
2023/05/17 07:51:01;;;;;;;6.10;1.15;;;14.60;99.90;;;;;;5030190;28;20777;-72
2023/05/17 07:53:32;;;;;;;5.35;0.90;;;14.60;99.90;;;;;;5035142;28;20194;-72
2023/05/17 07:56:03;;;;;;;7.25;0.90;;;14.60;99.90;;;;;;5017462;28;20242;-72
2023/05/17 07:58:35;;;;;;;4.20;0.90;;;14.60;99.90;;;;;;5024604;28;20227;-71
2023/05/17 08:01:06;;;;;;;3.47;0.70;;;14.60;99.90;;;;;;5022655;28;20194;-72
2023/05/17 08:03:46;;;;;;;3.28;0.75;;;14.60;99.90;;;;;;5015942;28;20195;-72
2023/05/17 08:06:17;;;;;;;3.80;0.70;;;14.60;99.90;;;;;;5019632;28;20608;-72
2023/05/17 08:08:48;;;;;;;4.53;1.00;;;14.60;99.90;;;;;;5016253;28;20195;-72
2023/05/17 08:11:20;;;;;;;7.38;0.90;;;14.60;99.90;;;;;;5022203;28;20198;-72
2023/05/17 08:13:51;;;;;;;6.60;1.17;;;14.60;99.90;;;;;;5036205;28;20190;-73
2023/05/17 08:16:22;;;;;;;2.92;0.82;;;14.60;99.90;;;;;;5034834;28;20564;-73
2023/05/17 08:18:55;;;;;;;3.53;0.70;;;14.60;99.90;;;;;;5017299;28;20277;-74
2023/05/17 08:21:26;;;;;;;4.38;0.70;;;14.60;99.90;;;;;;5016545;28;20195;-74
2023/05/17 08:23:57;;;;;;;5.43;0.80;;;14.60;99.90;;;;;;5025463;28;20557;-74
2023/05/17 08:26:28;;;;;;;2.20;0.63;;;14.50;99.90;;;;;;5031898;28;20204;-74
2023/05/17 08:29:00;;;;;;;3.95;0.80;;;14.50;99.90;;;;;;5035600;28;20194;-72
2023/05/17 08:31:31;;;;;;;2.90;0.63;;;14.50;99.90;;;;;;5033339;28;20226;-72
2023/05/17 08:34:04;;;;;;;5.93;0.90;;;14.50;99.90;;;;;;5014701;28;20199;-72
2023/05/17 08:36:35;;;;;;;5.00;0.90;;;14.50;99.90;;;;;;5020935;28;20202;-72
2023/05/17 08:39:07;;;;;;;2.70;0.80;;;14.50;99.90;;;;;;5007701;28;20202;-72
2023/05/17 08:41:38;;;;;;;2.72;0.80;;;14.40;99.90;;;;;;5029393;28;20196;-71
2023/05/17 08:44:10;;;;;;;3.25;0.88;;;14.40;99.90;;;;;;5028061;28;20546;-72
2023/05/17 08:46:42;;;;;;;4.43;0.98;;;14.40;99.90;;;;;;5035752;28;20194;-72
2023/05/17 08:49:16;;;;;;;6.00;1.25;;;14.30;99.90;;;;;;5025921;28;20202;-72
2023/05/17 08:51:49;;;;;;;6.18;1.00;;;14.30;99.90;;;;;;5023753;28;20199;-72
2023/05/17 08:54:21;;;;;;;2.95;0.90;;;14.30;99.90;;;;;;5031316;28;20202;-72
2023/05/17 08:56:56;;;;;;;3.97;0.93;;;14.20;99.90;;;;;;5034448;28;20225;-72
2023/05/17 08:59:32;;;;;;;3.63;1.00;;;14.20;99.90;;;;;;5021884;28;20226;-73
2023/05/17 09:02:04;;;;;;;5.95;0.90;;;14.20;99.90;;;;;;5031873;28;20201;-72
2023/05/17 09:04:37;;;;;;;3.60;1.13;;;14.20;99.90;;;;;;5026118;28;20198;-73
2023/05/17 09:07:08;;;;;;;2.60;0.80;;;14.10;99.90;;;;;;5020220;28;20198;-73
2023/05/17 09:09:39;;;;;;;3.97;1.27;;;14.10;99.90;;;;;;5029254;28;20222;-73
2023/05/17 09:12:11;;;;;;;5.72;1.00;;;14.10;99.90;;;;;;5017947;28;20206;-74
2023/05/17 09:14:42;;;;;;;4.15;0.98;;;14.10;99.90;;;;;;5023628;28;20299;-72
2023/05/17 09:17:18;;;;;;;2.83;1.02;;;14.10;99.90;;;;;;5024552;28;20203;-72
2023/05/17 09:19:51;;;;;;;3.15;1.23;;;14.00;99.90;;;;;;5025413;28;20198;-72
2023/05/17 09:22:22;;;;;;;5.32;0.93;;;14.00;99.90;;;;;;5032703;28;20201;-72
2023/05/17 09:24:54;;;;;;;4.63;0.90;;;14.00;99.90;;;;;;5028176;28;20205;-72
2023/05/17 09:27:25;;;;;;;7.05;1.20;;;14.00;99.90;;;;;;5020333;28;20206;-72
2023/05/17 09:29:57;;;;;;;4.03;1.30;;;14.00;99.90;;;;;;5021021;28;20582;-73
2023/05/17 09:32:29;;;;;;;5.15;1.23;;;14.00;99.90;;;;;;5031934;28;20194;-73
2023/05/17 09:35:03;;;;;;;3.33;1.10;;;14.00;99.90;;;;;;5034154;28;20572;-74
2023/05/17 09:37:34;;;;;;;3.30;1.15;;;14.00;99.90;;;;;;5030667;28;20631;-74
2023/05/17 09:40:05;;;;;;;5.07;1.10;;;14.00;99.90;;;;;;5018582;28;20203;-74
2023/05/17 09:42:38;;;;;;;6.28;1.10;;;14.00;99.90;;;;;;5024958;28;20203;-74
2023/05/17 09:45:09;;;;;;;5.75;1.00;;;14.00;99.90;;;;;;5030427;28;20712;-72
2023/05/17 09:47:40;;;;;;;3.67;1.10;;;14.00;99.90;;;;;;5025803;28;20191;-73
2023/05/17 09:50:20;;;;;;;3.22;0.90;;;14.00;99.90;;;;;;5024435;28;20209;-72
2023/05/17 09:52:51;;;;;;;5.88;1.20;;;14.00;99.90;;;;;;5016052;28;20195;-72
2023/05/17 09:55:28;;;;;;;2.88;0.98;;;14.10;99.90;;;;;;5026267;28;20217;-72
2023/05/17 09:58:05;;;;;;;6.57;1.10;;;14.10;99.90;;;;;;5029342;28;20608;-72
2023/05/17 10:00:37;;;;;;;6.28;0.90;;;14.00;99.90;;;;;;5019866;28;20668;-74
2023/05/17 10:03:09;;;;;;;3.63;1.10;;;14.00;99.90;;;;;;5024332;28;20194;-72
2023/05/17 10:05:44;;;;;;;5.57;1.10;;;14.00;99.90;;;;;;5032361;28;20205;-72
2023/05/17 10:08:19;;;;;;;4.97;0.95;;;14.10;99.90;;;;;;5026328;28;20281;-72
2023/05/17 10:10:51;;;;;;;4.13;0.88;;;14.00;99.90;;;;;;5030219;28;20193;-71
2023/05/17 10:13:25;;;;;;;1.90;0.80;;;14.10;99.90;;;;;;5017517;28;20203;-72
2023/05/17 10:15:57;;;;;;;4.88;0.90;;;14.10;99.90;;;;;;5013759;28;20230;-72
2023/05/17 10:18:28;;;;;;;2.83;1.05;;;14.00;99.90;;;;;;5020499;28;20194;-72
2023/05/17 10:21:02;;;;;;;3.95;1.05;;;14.00;99.90;;;;;;5033380;28;20186;-72
2023/05/17 10:23:34;;;;;;;5.60;1.10;;;14.00;99.90;;;;;;5033563;28;20195;-72
2023/05/17 10:26:06;;;;;;;3.42;1.10;;;14.10;99.90;;;;;;5025196;28;20187;-71
2023/05/17 10:28:38;;;;;;;4.38;1.02;;;14.10;99.90;;;;;;5028255;28;20199;-72
2023/05/17 10:31:09;;;;;;;4.10;0.90;;;14.00;99.90;;;;;;5022853;28;20203;-72
2023/05/17 10:33:42;;;;;;;2.78;1.00;;;14.00;99.90;;;;;;5013735;28;20195;-72
2023/05/17 10:36:18;;;;;;;2.38;0.95;;;13.90;99.90;;;;;;5013702;28;20219;-72
2023/05/17 10:38:49;;;;;;;2.42;1.00;;;13.90;99.90;;;;;;5013717;28;20198;-72
2023/05/17 10:41:22;;;;;;;3.00;1.10;;;13.90;99.90;;;;;;5024816;28;20194;-72
2023/05/17 10:43:55;;;;;;;4.88;1.10;;;13.90;99.90;;;;;;5033321;28;20213;-72
2023/05/17 10:46:26;;;;;;;2.30;1.00;;;13.80;99.90;;;;;;5033856;28;20304;-72
2023/05/17 10:48:59;;;;;;;3.97;0.95;;;13.80;99.90;;;;;;5021166;28;20249;-72
2023/05/17 10:51:35;;;;;;;5.45;0.77;;;13.80;99.90;;;;;;5013705;28;20213;-72
2023/05/17 10:54:11;;;;;;;3.42;1.00;;;13.80;99.90;;;;;;5007263;28;20197;-72
2023/05/17 10:56:51;;;;;;;1.85;0.80;;;13.80;99.90;;;;;;5013286;28;20634;-72
2023/05/17 10:59:24;;;;;;;2.95;0.93;;;13.80;99.90;;;;;;5013460;28;20226;-73
2023/05/17 11:02:02;;;;;;;9.32;1.20;;;13.80;99.90;;;;;;5013309;28;20195;-74
2023/05/17 11:04:36;;;;;;;3.92;0.88;;;13.80;99.90;;;;;;5013460;28;20198;-73
2023/05/17 11:07:31;;;;;;;4.47;1.00;;;13.80;99.90;;;;;;5033342;28;20197;-73
2023/05/17 11:10:13;;;;;;;2.45;1.00;;;13.80;99.90;;;;;;5033306;28;20226;-73
2023/05/17 11:12:46;;;;;;;0.98;0.70;;;13.80;99.90;;;;;;5033093;28;20205;-73
2023/05/17 11:15:19;;;;;;;2.13;0.80;;;13.80;99.90;;;;;;5033242;28;20752;-73
2023/05/17 11:17:55;;;;;;;7.05;1.10;;;13.80;99.90;;;;;;5021534;28;20635;-73
2023/05/17 11:20:37;;;;;;;3.42;0.80;;;13.80;99.90;;;;;;5012435;28;20194;-73
2023/05/17 11:23:18;;;;;;;2.45;0.80;;;13.80;99.90;;;;;;5030047;28;20206;-73
2023/05/17 11:25:51;;;;;;;7.82;1.27;;;13.80;99.90;;;;;;5036751;28;20200;-73
2023/05/17 11:28:24;;;;;;;2.95;0.95;;;13.70;99.90;;;;;;5024056;28;20221;-73
2023/05/17 11:31:04;;;;;;;4.70;1.00;;;13.70;99.90;;;;;;5035014;28;20202;-73
2023/05/17 11:33:44;;;;;;;3.78;1.27;;;13.70;99.90;;;;;;5023521;28;20202;-74
2023/05/17 11:36:21;;;;;;;3.42;1.20;;;13.60;99.90;;;;;;5025861;28;20225;-73
2023/05/17 11:39:13;;;;;;;5.25;2.25;;;13.60;99.90;;;;;;5017783;28;20685;-74
2023/05/17 11:41:51;;;;;;;3.03;1.20;;;13.50;99.90;;;;;;5017618;28;20334;-73
2023/05/17 11:44:27;;;;;;;4.90;1.38;;;13.40;99.90;;;;;;5025030;28;20214;-73
2023/05/17 11:47:04;;;;;;;2.70;1.27;;;13.40;99.90;;;;;;5020495;28;20558;-72
2023/05/17 11:49:38;;;;;;;4.38;1.40;;;13.30;99.90;;;;;;5027345;28;20207;-72
2023/05/17 11:52:10;;;;;;;2.83;1.30;;;13.30;99.90;;;;;;5009718;28;20586;-72
2023/05/17 11:54:44;;;;;;;4.28;1.40;;;13.20;99.90;;;;;;5032953;28;20199;-72
2023/05/17 11:57:16;;;;;;;7.03;1.50;;;13.20;99.90;;;;;;5025955;28;20244;-72
2023/05/17 11:59:48;;;;;;;3.88;1.50;;;13.10;99.90;;;;;;5055080;28;20218;-71
2023/05/17 12:02:33;;;;;;;5.00;1.58;;;13.10;99.90;;;;;;5055880;28;20696;-71
2023/05/17 12:05:04;;;;;;;3.83;1.40;;;13.00;99.90;;;;;;5055983;28;20193;-72
2023/05/17 12:07:37;;;;;;;3.05;1.38;;;13.10;99.90;;;;;;5056010;28;20193;-72
2023/05/17 12:10:16;;;;;;;3.53;1.20;;;13.00;99.90;;;;;;5048985;28;20236;-72
2023/05/17 12:12:47;;;;;;;3.08;1.40;;;13.00;99.90;;;;;;5049160;28;20647;-72
2023/05/17 12:15:22;;;;;;;4.40;1.40;;;13.10;99.90;;;;;;5030303;28;20656;-72
2023/05/17 12:17:55;;;;;;;2.92;1.00;;;13.10;99.90;;;;;;5022977;28;20574;-72
2023/05/17 12:20:27;;;;;;;2.25;1.20;;;13.10;99.90;;;;;;5035477;28;20213;-72
2023/05/17 12:22:59;;;;;;;3.55;1.30;;;13.10;99.90;;;;;;5035804;28;20642;-72
2023/05/17 12:25:32;;;;;;;4.18;1.40;;;13.10;99.90;;;;;;5032263;28;20213;-72
2023/05/17 12:28:21;;;;;;;4.65;1.52;;;13.10;99.90;;;;;;5028822;28;20198;-73
2023/05/17 12:30:56;;;;;;;3.03;1.30;;;13.10;99.90;;;;;;5019466;28;20194;-72
2023/05/17 12:33:28;;;;;;;3.78;1.20;;;13.10;99.90;;;;;;5015675;28;20205;-73
2023/05/17 12:35:59;;;;;;;5.57;1.25;;;13.00;99.90;;;;;;5015811;28;20225;-74
2023/05/17 12:38:32;;;;;;;4.47;1.50;;;13.00;99.90;;;;;;5029381;28;20194;-74
2023/05/17 12:41:10;;;;;;;5.13;1.60;;;12.90;99.90;;;;;;5027871;28;20199;-74
2023/05/17 12:43:42;;;;;;;3.70;1.20;;;12.90;99.90;;;;;;5020745;28;20201;-74
2023/05/17 12:46:16;;;;;;;3.97;1.40;;;12.90;99.90;;;;;;5019029;28;20225;-73
2023/05/17 12:48:48;;;;;;;4.03;1.40;;;12.80;99.90;;;;;;5018828;28;20203;-73
2023/05/17 12:51:20;;;;;;;3.15;1.35;;;12.80;99.90;;;;;;5026602;28;20192;-72
2023/05/17 12:53:53;;;;;;;3.55;1.10;;;12.80;99.90;;;;;;5015474;28;20195;-73
2023/05/17 12:56:29;;;;;;;4.00;1.42;;;12.70;99.90;;;;;;5029513;28;20297;-74
2023/05/17 12:59:13;;;;;;;3.65;1.50;;;12.70;99.90;;;;;;5035154;28;20320;-73
2023/05/17 13:01:46;;;;;;;3.67;1.40;;;12.70;99.90;;;;;;5023317;28;20198;-73
2023/05/17 13:04:18;;;;;;;4.50;1.30;;;12.60;99.90;;;;;;5021267;28;20200;-73
2023/05/17 13:06:50;;;;;;;4.82;1.30;;;12.60;99.90;;;;;;5035038;28;20541;-74
2023/05/17 13:09:22;;;;;;;3.25;1.20;;;12.60;99.90;;;;;;5035484;28;20556;-73
2023/05/17 13:12:00;;;;;;;4.57;1.27;;;12.60;99.90;;;;;;5034845;28;20245;-74
2023/05/17 13:14:38;;;;;;;4.00;1.23;;;12.50;99.90;;;;;;5031744;28;20246;-73
2023/05/17 13:17:10;;;;;;;4.25;1.25;;;12.50;99.90;;;;;;5026239;28;20218;-74